Terminal Aerodrome Forecast
Issued by NWS

Home | Current Version | Previous Version | Text Only | Print | Product List | Glossary On
Versions: 1 2 3 4 5 6 7 8 9 10 11 12 13 14 15 16 17 18 19
000
FTUS43 KDTX 232320
TAFPTK
TAF
KPTK 232320Z 2400/2424 13006KT P6SM FEW060 BKN120
     FM240200 06004KT P6SM OVC100
     FM241300 10007KT 5SM -SHRA BR BKN025 OVC060
     FM241800 08010KT P6SM BKN035=

USA.gov is the U.S. government's official web portal to all federal, state and local government web resources and services.